sensor_id;sensor_type;location;lat;lon;timestamp;pressure;altitude;pressure_sealevel;temperature;humidity
64460;BME280;50828;53.756;21.140;2023-11-18T00:04:06;100162.79;;;1.98;66.79
64460;BME280;50828;53.756;21.140;2023-11-18T00:09:21;100165.55;;;1.99;66.65
64460;BME280;50828;53.756;21.140;2023-11-18T00:14:30;100169.73;;;1.99;66.84
64460;BME280;50828;53.756;21.140;2023-11-18T00:19:37;100176.16;;;1.99;66.76
64460;BME280;50828;53.756;21.140;2023-11-18T00:24:45;100183.61;;;2.00;66.81
64460;BME280;50828;53.756;21.140;2023-11-18T00:29:52;100193.70;;;2.01;66.60
64460;BME280;50828;53.756;21.140;2023-11-18T00:34:59;100194.55;;;2.01;66.77
64460;BME280;50828;53.756;21.140;2023-11-18T00:40:08;100199.25;;;2.02;66.64
64460;BME280;50828;53.756;21.140;2023-11-18T00:45:17;100203.42;;;2.02;66.67
64460;BME280;50828;53.756;21.140;2023-11-18T00:50:24;100206.02;;;2.02;66.68
64460;BME280;50828;53.756;21.140;2023-11-18T00:55:32;100208.98;;;2.02;66.77
64460;BME280;50828;53.756;21.140;2023-11-18T01:00:39;100205.33;;;2.04;66.70
64460;BME280;50828;53.756;21.140;2023-11-18T01:05:47;100215.56;;;2.05;66.76
64460;BME280;50828;53.756;21.140;2023-11-18T01:10:54;100222.16;;;2.05;66.64
64460;BME280;50828;53.756;21.140;2023-11-18T01:16:02;100226.51;;;2.06;66.81
64460;BME280;50828;53.756;21.140;2023-11-18T01:21:10;100225.29;;;2.06;66.83
64460;BME280;50828;53.756;21.140;2023-11-18T01:26:17;100226.68;;;2.07;66.82
64460;BME280;50828;53.756;21.140;2023-11-18T01:31:25;100233.27;;;2.07;66.83
64460;BME280;50828;53.756;21.140;2023-11-18T01:36:47;100231.02;;;2.07;66.82
64460;BME280;50828;53.756;21.140;2023-11-18T01:41:55;100232.23;;;2.07;66.91
64460;BME280;50828;53.756;21.140;2023-11-18T01:47:08;100229.64;;;2.07;66.72
64460;BME280;50828;53.756;21.140;2023-11-18T01:52:18;100227.72;;;2.05;66.90
64460;BME280;50828;53.756;21.140;2023-11-18T01:57:27;100228.77;;;2.05;66.88
64460;BME280;50828;53.756;21.140;2023-11-18T02:02:34;100227.40;;;2.03;66.76
64460;BME280;50828;53.756;21.140;2023-11-18T02:07:44;100230.16;;;2.01;66.74
64460;BME280;50828;53.756;21.140;2023-11-18T02:12:57;100232.09;;;1.99;66.90
64460;BME280;50828;53.756;21.140;2023-11-18T02:18:11;100232.79;;;1.98;66.79
64460;BME280;50828;53.756;21.140;2023-11-18T02:23:20;100227.77;;;1.96;66.83
64460;BME280;50828;53.756;21.140;2023-11-18T02:28:28;100228.63;;;1.95;66.92
64460;BME280;50828;53.756;21.140;2023-11-18T02:33:39;100237.67;;;1.92;66.88
64460;BME280;50828;53.756;21.140;2023-11-18T02:38:51;100236.81;;;1.88;66.89
64460;BME280;50828;53.756;21.140;2023-11-18T02:44:00;100241.86;;;1.86;67.03
64460;BME280;50828;53.756;21.140;2023-11-18T02:49:08;100238.23;;;1.82;67.09
64460;BME280;50828;53.756;21.140;2023-11-18T02:54:15;100226.61;;;1.72;67.31
64460;BME280;50828;53.756;21.140;2023-11-18T02:59:23;100245.34;;;1.76;67.30
64460;BME280;50828;53.756;21.140;2023-11-18T03:04:30;100255.42;;;1.73;67.37
64460;BME280;50828;53.756;21.140;2023-11-18T03:09:37;100264.29;;;1.69;67.42
64460;BME280;50828;53.756;21.140;2023-11-18T03:14:45;100272.10;;;1.66;67.71
64460;BME280;50828;53.756;21.140;2023-11-18T03:19:53;100279.23;;;1.63;67.55
64460;BME280;50828;53.756;21.140;2023-11-18T03:25:01;100282.52;;;1.60;67.53
64460;BME280;50828;53.756;21.140;2023-11-18T03:30:09;100282.71;;;1.57;67.61
64460;BME280;50828;53.756;21.140;2023-11-18T03:35:17;100286.18;;;1.55;67.62
64460;BME280;50828;53.756;21.140;2023-11-18T03:40:25;100290.86;;;1.54;67.66
64460;BME280;50828;53.756;21.140;2023-11-18T03:45:34;100284.97;;;1.51;67.67
64460;BME280;50828;53.756;21.140;2023-11-18T03:50:41;100293.48;;;1.52;67.80
64460;BME280;50828;53.756;21.140;2023-11-18T03:55:49;100290.17;;;1.51;67.71
64460;BME280;50828;53.756;21.140;2023-11-18T04:06:40;100286.70;;;1.48;67.65
64460;BME280;50828;53.756;21.140;2023-11-18T04:11:47;100292.77;;;1.47;67.56
64460;BME280;50828;53.756;21.140;2023-11-18T04:16:55;100290.52;;;1.45;67.74
64460;BME280;50828;53.756;21.140;2023-11-18T04:22:03;100292.96;;;1.44;67.66
64460;BME280;50828;53.756;21.140;2023-11-18T04:27:11;100294.35;;;1.42;67.66
64460;BME280;50828;53.756;21.140;2023-11-18T04:32:18;100291.73;;;1.42;67.58
64460;BME280;50828;53.756;21.140;2023-11-18T04:37:26;100298.16;;;1.42;67.55
64460;BME280;50828;53.756;21.140;2023-11-18T04:42:33;100306.15;;;1.43;67.65
64460;BME280;50828;53.756;21.140;2023-11-18T04:47:40;100320.39;;;1.44;67.68
64460;BME280;50828;53.756;21.140;2023-11-18T04:52:49;100317.08;;;1.43;67.63
64460;BME280;50828;53.756;21.140;2023-11-18T04:57:56;100325.58;;;1.43;67.70
64460;BME280;50828;53.756;21.140;2023-11-18T05:03:04;100329.92;;;1.44;67.65
64460;BME280;50828;53.756;21.140;2023-11-18T05:08:21;100322.98;;;1.44;67.69
64460;BME280;50828;53.756;21.140;2023-11-18T05:13:28;100321.95;;;1.44;67.33
64460;BME280;50828;53.756;21.140;2023-11-18T05:18:36;100326.09;;;1.45;67.55
64460;BME280;50828;53.756;21.140;2023-11-18T05:23:44;100332.18;;;1.46;67.36
64460;BME280;50828;53.756;21.140;2023-11-18T05:28:51;100339.81;;;1.46;67.63
64460;BME280;50828;53.756;21.140;2023-11-18T05:34:00;100346.06;;;1.48;67.53
64460;BME280;50828;53.756;21.140;2023-11-18T05:39:08;100354.91;;;1.49;67.29
64460;BME280;50828;53.756;21.140;2023-11-18T05:44:16;100361.17;;;1.49;67.25
64460;BME280;50828;53.756;21.140;2023-11-18T05:49:25;100364.12;;;1.48;67.31
64460;BME280;50828;53.756;21.140;2023-11-18T05:54:32;100367.76;;;1.48;67.20
64460;BME280;50828;53.756;21.140;2023-11-18T05:59:39;100372.98;;;1.50;67.53
64460;BME280;50828;53.756;21.140;2023-11-18T06:04:47;100379.40;;;1.50;67.41
64460;BME280;50828;53.756;21.140;2023-11-18T06:09:55;100384.27;;;1.51;67.49
64460;BME280;50828;53.756;21.140;2023-11-18T06:15:04;100395.89;;;1.51;67.29
64460;BME280;50828;53.756;21.140;2023-11-18T06:20:15;100402.66;;;1.52;67.31
64460;BME280;50828;53.756;21.140;2023-11-18T06:25:23;100407.53;;;1.52;67.30
64460;BME280;50828;53.756;21.140;2023-11-18T06:30:31;100411.34;;;1.53;67.36
64460;BME280;50828;53.756;21.140;2023-11-18T06:35:39;100410.63;;;1.53;67.32
64460;BME280;50828;53.756;21.140;2023-11-18T06:40:46;100407.70;;;1.53;67.24
64460;BME280;50828;53.756;21.140;2023-11-18T06:45:57;100415.34;;;1.53;67.20
64460;BME280;50828;53.756;21.140;2023-11-18T06:51:05;100423.33;;;1.54;67.35
64460;BME280;50828;53.756;21.140;2023-11-18T06:56:13;100418.96;;;1.49;67.47
64460;BME280;50828;53.756;21.140;2023-11-18T07:01:22;100436.52;;;1.56;67.44
64460;BME280;50828;53.756;21.140;2023-11-18T07:06:29;100453.17;;;1.56;67.46
64460;BME280;50828;53.756;21.140;2023-11-18T07:11:36;100468.29;;;1.57;67.24
64460;BME280;50828;53.756;21.140;2023-11-18T07:16:44;100476.10;;;1.58;67.47
64460;BME280;50828;53.756;21.140;2023-11-18T07:21:51;100484.09;;;1.59;67.54
64460;BME280;50828;53.756;21.140;2023-11-18T07:26:59;100483.58;;;1.60;67.47
64460;BME280;50828;53.756;21.140;2023-11-18T07:32:07;100491.89;;;1.61;67.20
64460;BME280;50828;53.756;21.140;2023-11-18T07:37:15;100496.77;;;1.61;67.22
64460;BME280;50828;53.756;21.140;2023-11-18T07:42:22;100504.23;;;1.61;67.15
64460;BME280;50828;53.756;21.140;2023-11-18T07:47:31;100511.17;;;1.60;67.20
64460;BME280;50828;53.756;21.140;2023-11-18T07:52:40;100517.42;;;1.59;67.04
64460;BME280;50828;53.756;21.140;2023-11-18T07:57:47;100511.86;;;1.59;67.26
64460;BME280;50828;53.756;21.140;2023-11-18T08:02:54;100512.05;;;1.59;67.13
64460;BME280;50828;53.756;21.140;2023-11-18T08:08:02;100514.47;;;1.59;67.20
64460;BME280;50828;53.756;21.140;2023-11-18T08:13:10;100522.64;;;1.60;67.24
64460;BME280;50828;53.756;21.140;2023-11-18T08:18:18;100525.42;;;1.61;67.17
64460;BME280;50828;53.756;21.140;2023-11-18T08:23:27;100526.11;;;1.64;67.42
64460;BME280;50828;53.756;21.140;2023-11-18T08:28:34;100528.04;;;1.68;67.41
64460;BME280;50828;53.756;21.140;2023-11-18T08:33:42;100526.83;;;1.72;67.19
64460;BME280;50828;53.756;21.140;2023-11-18T08:38:52;100532.39;;;1.76;67.35
64460;BME280;50828;53.756;21.140;2023-11-18T08:43:59;100530.33;;;1.80;67.29
64460;BME280;50828;53.756;21.140;2023-11-18T08:49:26;100538.85;;;1.84;67.09
64460;BME280;50828;53.756;21.140;2023-11-18T08:54:39;100547.55;;;1.87;67.01
64460;BME280;50828;53.756;21.140;2023-11-18T09:00:09;100550.33;;;1.91;67.17
64460;BME280;50828;53.756;21.140;2023-11-18T09:05:36;100556.08;;;1.96;67.12
64460;BME280;50828;53.756;21.140;2023-11-18T09:10:45;100557.46;;;2.00;67.13
64460;BME280;50828;53.756;21.140;2023-11-18T09:15:52;100557.65;;;2.05;67.18
64460;BME280;50828;53.756;21.140;2023-11-18T09:21:01;100556.43;;;2.09;66.85
64460;BME280;50828;53.756;21.140;2023-11-18T09:26:11;100552.27;;;2.11;66.81
64460;BME280;50828;53.756;21.140;2023-11-18T09:31:18;100552.11;;;2.13;66.98
64460;BME280;50828;53.756;21.140;2023-11-18T09:36:27;100556.10;;;2.15;66.86
64460;BME280;50828;53.756;21.140;2023-11-18T09:41:35;100558.35;;;2.18;66.85
64460;BME280;50828;53.756;21.140;2023-11-18T09:46:43;100556.81;;;2.22;66.91
64460;BME280;50828;53.756;21.140;2023-11-18T09:52:06;100554.90;;;2.30;67.10
64460;BME280;50828;53.756;21.140;2023-11-18T09:57:18;100555.26;;;2.38;67.05
64460;BME280;50828;53.756;21.140;2023-11-18T10:02:29;100554.21;;;2.46;66.78
64460;BME280;50828;53.756;21.140;2023-11-18T10:07:40;100561.17;;;2.51;66.69
64460;BME280;50828;53.756;21.140;2023-11-18T10:12:49;100558.73;;;2.52;66.35
64460;BME280;50828;53.756;21.140;2023-11-18T10:17:58;100561.17;;;2.51;65.78
64460;BME280;50828;53.756;21.140;2023-11-18T10:23:14;100563.42;;;2.50;65.66
64460;BME280;50828;53.756;21.140;2023-11-18T10:28:26;100564.64;;;2.49;65.67
64460;BME280;50828;53.756;21.140;2023-11-18T10:33:35;100559.08;;;2.50;65.89
64460;BME280;50828;53.756;21.140;2023-11-18T10:38:43;100564.30;;;2.55;65.76
64460;BME280;50828;53.756;21.140;2023-11-18T10:44:07;100563.94;;;2.59;66.04
64460;BME280;50828;53.756;21.140;2023-11-18T10:49:17;100558.73;;;2.64;65.93
64460;BME280;50828;53.756;21.140;2023-11-18T10:54:24;100551.42;;;2.69;65.71
64460;BME280;50828;53.756;21.140;2023-11-18T10:59:32;100555.58;;;2.74;65.92
64460;BME280;50828;53.756;21.140;2023-11-18T11:04:45;100557.67;;;2.80;65.94
64460;BME280;50828;53.756;21.140;2023-11-18T11:09:54;100559.91;;;2.85;65.78
64460;BME280;50828;53.756;21.140;2023-11-18T11:15:08;100567.05;;;2.89;65.51
64460;BME280;50828;53.756;21.140;2023-11-18T11:20:28;100570.34;;;2.92;64.90
64460;BME280;50828;53.756;21.140;2023-11-18T11:25:41;100568.43;;;2.92;64.63
64460;BME280;50828;53.756;21.140;2023-11-18T11:30:58;100572.61;;;2.91;63.94
64460;BME280;50828;53.756;21.140;2023-11-18T11:36:15;100574.34;;;2.92;64.28
64460;BME280;50828;53.756;21.140;2023-11-18T11:41:29;100577.30;;;2.96;64.48
64460;BME280;50828;53.756;21.140;2023-11-18T11:46:39;100581.81;;;3.01;64.61
64460;BME280;50828;53.756;21.140;2023-11-18T11:51:49;100586.67;;;3.06;64.82
64460;BME280;50828;53.756;21.140;2023-11-18T11:56:59;100586.85;;;3.12;64.56
64460;BME280;50828;53.756;21.140;2023-11-18T12:02:07;100589.09;;;3.16;64.03
64460;BME280;50828;53.756;21.140;2023-11-18T12:07:16;100587.70;;;3.18;63.71
64460;BME280;50828;53.756;21.140;2023-11-18T12:12:27;100589.60;;;3.19;63.57
64460;BME280;50828;53.756;21.140;2023-11-18T12:18:11;100593.10;;;3.18;63.44
64460;BME280;50828;53.756;21.140;2023-11-18T12:23:23;100600.06;;;3.18;63.32
64460;BME280;50828;53.756;21.140;2023-11-18T12:28:32;100594.30;;;3.19;63.36
64460;BME280;50828;53.756;21.140;2023-11-18T12:34:04;100600.40;;;3.20;63.28
64460;BME280;50828;53.756;21.140;2023-11-18T12:39:40;100593.79;;;3.22;63.14
64460;BME280;50828;53.756;21.140;2023-11-18T12:45:16;100589.95;;;3.22;62.71
64460;BME280;50828;53.756;21.140;2023-11-18T12:50:32;100603.89;;;3.23;62.17
64460;BME280;50828;53.756;21.140;2023-11-18T12:55:42;100615.71;;;3.22;61.95
64460;BME280;50828;53.756;21.140;2023-11-18T13:00:49;100617.11;;;3.21;61.93
64460;BME280;50828;53.756;21.140;2023-11-18T13:05:57;100615.89;;;3.21;61.61
64460;BME280;50828;53.756;21.140;2023-11-18T13:11:05;100621.98;;;3.20;61.65
64460;BME280;50828;53.756;21.140;2023-11-18T13:16:18;100630.69;;;3.20;61.66
64460;BME280;50828;53.756;21.140;2023-11-18T13:21:25;100634.17;;;3.19;61.54
64460;BME280;50828;53.756;21.140;2023-11-18T13:26:35;100640.44;;;3.19;61.37
64460;BME280;50828;53.756;21.140;2023-11-18T13:31:43;100639.21;;;3.19;61.07
64460;BME280;50828;53.756;21.140;2023-11-18T13:36:53;100640.77;;;3.18;60.86
64460;BME280;50828;53.756;21.140;2023-11-18T13:42:19;100638.17;;;3.18;60.74
64460;BME280;50828;53.756;21.140;2023-11-18T13:47:27;100639.23;;;3.17;60.38
64460;BME280;50828;53.756;21.140;2023-11-18T13:52:35;100637.48;;;3.16;60.25
64460;BME280;50828;53.756;21.140;2023-11-18T13:57:44;100641.66;;;3.18;59.83
64460;BME280;50828;53.756;21.140;2023-11-18T14:02:52;100650.35;;;3.20;58.76
64460;BME280;50828;53.756;21.140;2023-11-18T14:08:00;100659.77;;;3.22;58.35
64460;BME280;50828;53.756;21.140;2023-11-18T14:13:16;100666.19;;;3.21;58.74
64460;BME280;50828;53.756;21.140;2023-11-18T14:18:25;100665.85;;;3.16;59.59
64460;BME280;50828;53.756;21.140;2023-11-18T14:23:32;100662.21;;;3.08;60.23
64460;BME280;50828;53.756;21.140;2023-11-18T14:28:40;100663.77;;;3.01;60.46
64460;BME280;50828;53.756;21.140;2023-11-18T14:33:49;100664.82;;;2.95;60.74
64460;BME280;50828;53.756;21.140;2023-11-18T14:38:57;100659.95;;;2.90;60.76
64460;BME280;50828;53.756;21.140;2023-11-18T14:44:05;100666.39;;;2.82;60.89
64460;BME280;50828;53.756;21.140;2023-11-18T14:49:15;100667.08;;;2.70;61.16
64460;BME280;50828;53.756;21.140;2023-11-18T14:54:22;100665.50;;;2.60;61.44
64460;BME280;50828;53.756;21.140;2023-11-18T14:59:30;100668.97;;;2.50;61.41
64460;BME280;50828;53.756;21.140;2023-11-18T15:04:37;100667.03;;;2.40;61.53
64460;BME280;50828;53.756;21.140;2023-11-18T15:09:45;100669.63;;;2.32;61.66
64460;BME280;50828;53.756;21.140;2023-11-18T15:14:53;100673.25;;;2.26;61.89
64460;BME280;50828;53.756;21.140;2023-11-18T15:20:01;100688.71;;;2.21;62.07
64460;BME280;50828;53.756;21.140;2023-11-18T15:25:12;100689.02;;;2.11;61.92
64460;BME280;50828;53.756;21.140;2023-11-18T15:30:19;100689.73;;;2.15;62.29
64460;BME280;50828;53.756;21.140;2023-11-18T15:35:30;100684.34;;;2.13;62.29
64460;BME280;50828;53.756;21.140;2023-11-18T15:40:38;100691.11;;;2.11;62.57
64460;BME280;50828;53.756;21.140;2023-11-18T15:45:47;100684.33;;;2.08;62.48
64460;BME280;50828;53.756;21.140;2023-11-18T15:50:54;100687.96;;;2.05;62.85
64460;BME280;50828;53.756;21.140;2023-11-18T15:56:05;100696.64;;;2.03;62.71
64460;BME280;50828;53.756;21.140;2023-11-18T16:01:14;100698.19;;;2.01;62.92
64460;BME280;50828;53.756;21.140;2023-11-18T16:06:21;100700.45;;;1.99;63.12
64460;BME280;50828;53.756;21.140;2023-11-18T16:11:29;100696.27;;;1.96;63.09
64460;BME280;50828;53.756;21.140;2023-11-18T16:16:36;100696.27;;;1.95;63.28
64460;BME280;50828;53.756;21.140;2023-11-18T16:21:44;100701.27;;;1.92;63.29
64460;BME280;50828;53.756;21.140;2023-11-18T16:26:52;100701.27;;;1.91;63.35
64460;BME280;50828;53.756;21.140;2023-11-18T16:31:59;100695.02;;;1.89;63.33
64460;BME280;50828;53.756;21.140;2023-11-18T16:37:07;100692.76;;;1.88;63.69
64460;BME280;50828;53.756;21.140;2023-11-18T16:42:14;100697.26;;;1.86;63.65
64460;BME280;50828;53.756;21.140;2023-11-18T16:47:22;100698.13;;;1.85;63.68
64460;BME280;50828;53.756;21.140;2023-11-18T16:52:29;100694.98;;;1.84;63.97
64460;BME280;50828;53.756;21.140;2023-11-18T16:57:36;100698.46;;;1.83;63.88
64460;BME280;50828;53.756;21.140;2023-11-18T17:02:44;100688.21;;;1.82;64.30
64460;BME280;50828;53.756;21.140;2023-11-18T17:07:53;100693.42;;;1.82;64.13
64460;BME280;50828;53.756;21.140;2023-11-18T17:13:01;100696.89;;;1.79;64.28
64460;BME280;50828;53.756;21.140;2023-11-18T17:18:10;100704.70;;;1.79;64.48
64460;BME280;50828;53.756;21.140;2023-11-18T17:23:17;100702.27;;;1.78;64.58
64460;BME280;50828;53.756;21.140;2023-11-18T17:28:25;100698.44;;;1.77;64.66
64460;BME280;50828;53.756;21.140;2023-11-18T17:33:32;100695.65;;;1.76;64.65
64460;BME280;50828;53.756;21.140;2023-11-18T17:38:40;100694.08;;;1.76;64.54
64460;BME280;50828;53.756;21.140;2023-11-18T17:43:49;100690.59;;;1.74;64.55
64460;BME280;50828;53.756;21.140;2023-11-18T17:48:56;100694.23;;;1.73;64.66
64460;BME280;50828;53.756;21.140;2023-11-18T17:54:03;100697.88;;;1.72;64.88
64460;BME280;50828;53.756;21.140;2023-11-18T17:59:11;100688.16;;;1.71;64.76
64460;BME280;50828;53.756;21.140;2023-11-18T18:04:18;100682.77;;;1.69;64.98
64460;BME280;50828;53.756;21.140;2023-11-18T18:09:26;100688.29;;;1.66;65.13
64460;BME280;50828;53.756;21.140;2023-11-18T18:14:33;100692.83;;;1.66;65.19
64460;BME280;50828;53.756;21.140;2023-11-18T18:19:40;100694.02;;;1.67;65.02
64460;BME280;50828;53.756;21.140;2023-11-18T18:24:47;100690.73;;;1.66;64.99
64460;BME280;50828;53.756;21.140;2023-11-18T18:29:55;100687.26;;;1.65;65.29
64460;BME280;50828;53.756;21.140;2023-11-18T18:35:02;100682.04;;;1.64;65.28
64460;BME280;50828;53.756;21.140;2023-11-18T18:40:13;100694.00;;;1.63;65.09
64460;BME280;50828;53.756;21.140;2023-11-18T18:45:21;100686.20;;;1.62;65.15
64460;BME280;50828;53.756;21.140;2023-11-18T18:50:29;100681.50;;;1.60;65.35
64460;BME280;50828;53.756;21.140;2023-11-18T18:55:40;100681.31;;;1.59;65.35
64460;BME280;50828;53.756;21.140;2023-11-18T19:00:47;100676.80;;;1.58;65.26
64460;BME280;50828;53.756;21.140;2023-11-18T19:05:56;100663.77;;;1.56;65.07
64460;BME280;50828;53.756;21.140;2023-11-18T19:11:04;100669.67;;;1.54;65.23
64460;BME280;50828;53.756;21.140;2023-11-18T19:16:12;100675.05;;;1.54;65.20
64460;BME280;50828;53.756;21.140;2023-11-18T19:21:19;100681.46;;;1.52;65.26
64460;BME280;50828;53.756;21.140;2023-11-18T19:26:26;100689.27;;;1.51;65.22
64460;BME280;50828;53.756;21.140;2023-11-18T19:31:33;100682.14;;;1.51;65.33
64460;BME280;50828;53.756;21.140;2023-11-18T19:36:40;100684.75;;;1.51;65.48
64460;BME280;50828;53.756;21.140;2023-11-18T19:41:48;100681.77;;;1.46;65.51
64460;BME280;50828;53.756;21.140;2023-11-18T19:46:55;100683.80;;;1.39;65.33
64460;BME280;50828;53.756;21.140;2023-11-18T19:52:03;100685.88;;;1.38;65.60
64460;BME280;50828;53.756;21.140;2023-11-18T19:57:12;100686.40;;;1.39;65.51
64460;BME280;50828;53.756;21.140;2023-11-18T20:02:19;100689.52;;;1.40;65.60
64460;BME280;50828;53.756;21.140;2023-11-18T20:07:27;100683.81;;;1.41;65.59
64460;BME280;50828;53.756;21.140;2023-11-18T20:12:34;100675.66;;;1.41;65.58
64460;BME280;50828;53.756;21.140;2023-11-18T20:17:42;100667.86;;;1.43;65.51
64460;BME280;50828;53.756;21.140;2023-11-18T20:22:52;100661.10;;;1.43;65.62
64460;BME280;50828;53.756;21.140;2023-11-18T20:28:00;100648.25;;;1.43;65.59
64460;BME280;50828;53.756;21.140;2023-11-18T20:33:07;100646.15;;;1.42;65.61
64460;BME280;50828;53.756;21.140;2023-11-18T20:38:15;100646.16;;;1.41;65.59
64460;BME280;50828;53.756;21.140;2023-11-18T20:43:23;100648.41;;;1.41;65.57
64460;BME280;50828;53.756;21.140;2023-11-18T20:48:31;100642.67;;;1.40;65.64
64460;BME280;50828;53.756;21.140;2023-11-18T20:53:38;100629.65;;;1.41;65.74
64460;BME280;50828;53.756;21.140;2023-11-18T20:58:45;100622.37;;;1.40;65.58
64460;BME280;50828;53.756;21.140;2023-11-18T21:03:53;100618.19;;;1.39;65.55
64460;BME280;50828;53.756;21.140;2023-11-18T21:09:01;100606.73;;;1.38;65.39
64460;BME280;50828;53.756;21.140;2023-11-18T21:14:08;100605.34;;;1.37;65.42
64460;BME280;50828;53.756;21.140;2023-11-18T21:19:16;100608.45;;;1.35;65.34
64460;BME280;50828;53.756;21.140;2023-11-18T21:24:24;100605.30;;;1.32;65.24
64460;BME280;50828;53.756;21.140;2023-11-18T21:29:31;100602.35;;;1.31;65.22
64460;BME280;50828;53.756;21.140;2023-11-18T21:34:39;100605.64;;;1.31;65.14
64460;BME280;50828;53.756;21.140;2023-11-18T21:39:48;100607.73;;;1.31;65.37
64460;BME280;50828;53.756;21.140;2023-11-18T21:44:55;100613.63;;;1.30;65.24
64460;BME280;50828;53.756;21.140;2023-11-18T21:50:03;100616.75;;;1.30;65.43
64460;BME280;50828;53.756;21.140;2023-11-18T21:55:12;100623.70;;;1.30;65.48
64460;BME280;50828;53.756;21.140;2023-11-18T22:00:20;100641.04;;;1.28;65.21
64460;BME280;50828;53.756;21.140;2023-11-18T22:05:27;100639.09;;;1.23;65.53
64460;BME280;50828;53.756;21.140;2023-11-18T22:10:34;100627.30;;;1.22;65.53
64460;BME280;50828;53.756;21.140;2023-11-18T22:15:42;100618.62;;;1.22;65.41
64460;BME280;50828;53.756;21.140;2023-11-18T22:20:49;100612.39;;;1.24;65.49
64460;BME280;50828;53.756;21.140;2023-11-18T22:25:56;100603.20;;;1.25;65.67
64460;BME280;50828;53.756;21.140;2023-11-18T22:31:04;100598.34;;;1.24;65.46
64460;BME280;50828;53.756;21.140;2023-11-18T22:36:12;100603.89;;;1.25;65.74
64460;BME280;50828;53.756;21.140;2023-11-18T22:41:20;100601.29;;;1.25;65.71
64460;BME280;50828;53.756;21.140;2023-11-18T22:46:28;100606.31;;;1.24;65.53
64460;BME280;50828;53.756;21.140;2023-11-18T22:51:35;100617.56;;;1.20;65.71
64460;BME280;50828;53.756;21.140;2023-11-18T22:56:43;100625.89;;;1.18;65.59
64460;BME280;50828;53.756;21.140;2023-11-18T23:01:50;100621.02;;;1.18;65.83
64460;BME280;50828;53.756;21.140;2023-11-18T23:06:58;100616.34;;;1.19;65.69
64460;BME280;50828;53.756;21.140;2023-11-18T23:12:08;100609.23;;;1.18;65.76
64460;BME280;50828;53.756;21.140;2023-11-18T23:17:16;100595.88;;;1.18;65.71
64460;BME280;50828;53.756;21.140;2023-11-18T23:22:24;100580.77;;;1.17;65.72
64460;BME280;50828;53.756;21.140;2023-11-18T23:27:31;100568.45;;;1.18;65.99
64460;BME280;50828;53.756;21.140;2023-11-18T23:32:38;100551.96;;;1.16;66.02
64460;BME280;50828;53.756;21.140;2023-11-18T23:37:46;100540.52;;;1.16;65.85
64460;BME280;50828;53.756;21.140;2023-11-18T23:42:54;100523.67;;;1.15;65.87
64460;BME280;50828;53.756;21.140;2023-11-18T23:48:02;100515.67;;;1.13;65.93
64460;BME280;50828;53.756;21.140;2023-11-18T23:53:11;100517.23;;;1.12;66.06
64460;BME280;50828;53.756;21.140;2023-11-18T23:58:18;100495.89;;;1.10;66.02
